createdAt,value
2023-04-19T00:01:11.257Z,14.85
2023-04-19T00:03:12.808Z,13.63
2023-04-19T00:05:14.646Z,13.18
2023-04-19T00:07:17.211Z,13.95
2023-04-19T00:09:18.689Z,13.05
2023-04-19T00:11:20.236Z,13.95
2023-04-19T00:13:22.054Z,12.23
2023-04-19T00:15:23.497Z,12.95
2023-04-19T00:17:25.039Z,12.32
2023-04-19T00:19:26.797Z,12.70
2023-04-19T00:21:28.432Z,13.18
2023-04-19T00:23:29.899Z,13.27
2023-04-19T00:25:32.108Z,12.98
2023-04-19T00:27:34.740Z,12.43
2023-04-19T00:29:36.188Z,11.52
2023-04-19T00:31:39.737Z,13.63
2023-04-19T00:33:41.323Z,14.20
2023-04-19T00:35:42.818Z,13.95
2023-04-19T00:37:44.236Z,13.40
2023-04-19T00:39:45.938Z,12.35
2023-04-19T00:41:47.391Z,12.05
2023-04-19T00:43:48.801Z,13.45
2023-04-19T00:45:50.305Z,13.20
2023-04-19T00:47:52.056Z,11.75
2023-04-19T00:49:53.573Z,13.07
2023-04-19T00:51:55.123Z,12.40
2023-04-19T00:53:56.768Z,12.80
2023-04-19T00:56:00.614Z,11.23
2023-04-19T00:58:02.569Z,12.90
2023-04-19T01:00:06.709Z,10.40
2023-04-19T01:02:09.290Z,13.48
2023-04-19T01:04:10.976Z,13.85
2023-04-19T01:06:12.751Z,12.05
2023-04-19T01:08:14.255Z,11.73
2023-04-19T01:10:15.659Z,12.93
2023-04-19T01:12:17.120Z,12.07
2023-04-19T01:14:18.577Z,11.73
2023-04-19T01:16:20.093Z,13.73
2023-04-19T01:18:24.386Z,13.77
2023-04-19T01:20:25.830Z,11.55
2023-04-19T01:22:28.309Z,13.77
2023-04-19T01:24:30.506Z,12.75
2023-04-19T01:26:31.965Z,13.60
2023-04-19T01:28:33.556Z,12.50
2023-04-19T01:30:36.478Z,10.52
2023-04-19T01:32:37.930Z,11.80
2023-04-19T01:34:39.696Z,13.82
2023-04-19T01:36:41.083Z,14.45
2023-04-19T01:38:42.476Z,8.23
2023-04-19T01:40:44.057Z,8.35
2023-04-19T01:42:45.569Z,14.25
2023-04-19T01:44:47.014Z,17.80
2023-04-19T01:46:48.502Z,20.63
2023-04-19T01:48:50.038Z,19.33
2023-04-19T01:50:51.508Z,20.35
2023-04-19T01:52:53.000Z,20.05
2023-04-19T01:54:54.372Z,18.98
2023-04-19T01:56:56.052Z,17.13
2023-04-19T01:58:57.455Z,21.75
2023-04-19T02:00:58.893Z,21.27
2023-04-19T02:03:00.522Z,20.92
2023-04-19T02:05:02.084Z,22.13
2023-04-19T02:07:03.522Z,21.38
2023-04-19T02:09:05.031Z,22.75
2023-04-19T02:11:09.091Z,24.13
2023-04-19T02:13:10.705Z,25.70
2023-04-19T02:15:12.269Z,24.88
2023-04-19T02:17:13.792Z,24.67
2023-04-19T02:19:15.335Z,20.42
2023-04-19T02:21:16.820Z,27.50
2023-04-19T02:23:18.224Z,24.52
2023-04-19T02:25:19.769Z,23.42
2023-04-19T02:27:21.166Z,23.65
2023-04-19T02:29:22.585Z,21.92
2023-04-19T02:31:24.078Z,23.58
2023-04-19T02:33:26.145Z,23.92
2023-04-19T02:35:27.560Z,22.10
2023-04-19T02:37:28.950Z,26.50
2023-04-19T02:39:30.456Z,27.20
2023-04-19T02:41:31.877Z,23.45
2023-04-19T02:43:33.321Z,23.88
2023-04-19T02:45:35.110Z,24.25
2023-04-19T02:47:36.803Z,23.95
2023-04-19T02:49:41.456Z,25.52
2023-04-19T02:51:42.934Z,25.85
2023-04-19T02:53:44.350Z,26.77
2023-04-19T02:55:45.776Z,23.38
2023-04-19T02:57:47.163Z,25.65
2023-04-19T02:59:48.575Z,28.23
2023-04-19T03:01:50.092Z,25.67
2023-04-19T03:03:51.740Z,26.35
2023-04-19T03:05:53.234Z,26.08
2023-04-19T03:07:54.740Z,28.63
2023-04-19T03:09:56.157Z,27.35
2023-04-19T03:11:57.633Z,26.17
2023-04-19T03:13:59.065Z,24.95
2023-04-19T03:16:00.564Z,18.42
2023-04-19T03:18:02.418Z,25.67
2023-04-19T03:20:10.086Z,23.92
2023-04-19T03:22:11.600Z,17.15
2023-04-19T03:24:13.227Z,22.80
2023-04-19T03:26:14.930Z,20.52
2023-04-19T03:28:16.339Z,16.25
2023-04-19T03:30:18.277Z,24.05
2023-04-19T03:32:19.724Z,22.80
2023-04-19T03:34:21.184Z,31.20
2023-04-19T03:36:22.569Z,32.83
2023-04-19T03:38:23.982Z,29.92
2023-04-19T03:40:25.481Z,25.70
2023-04-19T03:42:28.868Z,20.75
2023-04-19T03:44:34.134Z,20.60
2023-04-19T03:46:35.964Z,22.80
2023-04-19T03:48:37.406Z,24.45
2023-04-19T03:50:38.807Z,21.52
2023-04-19T03:52:40.277Z,28.38
2023-04-19T03:54:41.674Z,25.95
2023-04-19T03:56:43.231Z,30.40
2023-04-19T03:58:44.603Z,30.60
2023-04-19T04:00:46.065Z,24.45
2023-04-19T04:02:47.694Z,23.35
2023-04-19T04:04:55.744Z,15.00
2023-04-19T04:06:57.208Z,29.63
2023-04-19T04:08:58.624Z,24.92
2023-04-19T04:11:00.048Z,19.95
2023-04-19T04:13:01.515Z,15.00
2023-04-19T04:15:03.069Z,9.05
2023-04-19T04:17:04.503Z,7.30
2023-04-19T04:19:06.150Z,9.30
2023-04-19T04:21:07.935Z,5.53
2023-04-19T04:23:10.972Z,6.07
2023-04-19T04:25:12.656Z,6.07
2023-04-19T04:27:14.225Z,6.05
2023-04-19T04:29:16.571Z,7.53
2023-04-19T04:31:18.880Z,6.75
2023-04-19T04:33:20.451Z,3.72
2023-04-19T04:35:21.814Z,3.50
2023-04-19T04:37:24.421Z,2.67
2023-04-19T04:39:25.839Z,3.42
2023-04-19T04:41:28.024Z,5.13
2023-04-19T04:43:29.967Z,4.97
2023-04-19T04:45:32.261Z,4.57
2023-04-19T04:47:34.265Z,4.80
2023-04-19T04:49:36.394Z,5.10
2023-04-19T04:51:37.913Z,4.88
2023-04-19T04:53:39.379Z,4.65
2023-04-19T04:55:41.008Z,5.70
2023-04-19T04:57:42.427Z,5.22
2023-04-19T04:59:43.900Z,6.97
2023-04-19T05:01:45.401Z,9.32
2023-04-19T05:03:46.857Z,10.98
2023-04-19T05:05:48.338Z,5.95
2023-04-19T05:07:49.760Z,7.95
2023-04-19T05:09:51.136Z,6.35
2023-04-19T05:11:52.558Z,6.30
2023-04-19T05:13:54.154Z,5.97
2023-04-19T05:15:55.623Z,5.60
2023-04-19T05:17:57.061Z,6.45
2023-04-19T05:19:58.717Z,6.95
2023-04-19T05:22:00.274Z,3.72
2023-04-19T05:24:01.720Z,4.07
2023-04-19T05:26:03.159Z,4.72
2023-04-19T05:28:04.708Z,7.25
2023-04-19T05:30:06.648Z,4.82
2023-04-19T05:32:08.273Z,6.38
2023-04-19T05:34:09.921Z,7.57
2023-04-19T05:36:11.552Z,7.38
2023-04-19T05:38:12.975Z,11.50
2023-04-19T05:40:14.485Z,21.70
2023-04-19T05:42:15.928Z,24.52
2023-04-19T05:44:17.650Z,9.77
2023-04-19T05:46:19.344Z,13.85
2023-04-19T05:48:20.836Z,18.60
2023-04-19T05:50:22.336Z,16.40
2023-04-19T05:52:23.758Z,19.45
2023-04-19T05:54:25.283Z,13.30
2023-04-19T05:56:26.830Z,12.90
2023-04-19T05:58:28.673Z,10.15
2023-04-19T06:00:30.475Z,8.25
2023-04-19T06:02:31.916Z,5.45
2023-04-19T06:04:33.594Z,5.30
2023-04-19T06:06:35.361Z,5.68
2023-04-19T06:08:36.843Z,9.35
2023-04-19T06:10:52.645Z,8.25
2023-04-19T06:12:55.859Z,7.43
2023-04-19T06:14:57.292Z,6.60
2023-04-19T06:16:58.759Z,8.38
2023-04-19T06:19:00.874Z,4.32
2023-04-19T06:21:02.325Z,14.57
2023-04-19T06:23:03.910Z,12.70
2023-04-19T06:25:05.595Z,8.85
2023-04-19T06:27:06.981Z,8.65
2023-04-19T06:29:08.555Z,6.43
2023-04-19T06:31:10.017Z,10.75
2023-04-19T06:33:11.479Z,9.65
2023-04-19T06:35:12.961Z,9.80
2023-04-19T06:37:14.791Z,10.05
2023-04-19T06:39:16.309Z,7.00
2023-04-19T06:41:18.071Z,7.43
2023-04-19T06:43:19.620Z,8.10
2023-04-19T06:45:21.461Z,7.38
2023-04-19T06:47:23.152Z,4.65
2023-04-19T06:49:24.667Z,5.07
2023-04-19T06:51:26.201Z,6.20
2023-04-19T06:53:27.699Z,7.15
2023-04-19T06:55:29.093Z,4.38
2023-04-19T06:57:30.550Z,10.45
2023-04-19T06:59:32.429Z,13.60
2023-04-19T07:01:43.472Z,3.75
2023-04-19T07:03:45.921Z,57.30
2023-04-19T07:05:47.832Z,29.58
2023-04-19T07:07:49.286Z,9.30
2023-04-19T07:09:50.817Z,12.20
2023-04-19T07:11:52.329Z,10.63
2023-04-19T07:13:53.749Z,5.15
2023-04-19T07:15:55.420Z,4.43
2023-04-19T07:17:57.006Z,5.68
2023-04-19T07:19:58.458Z,8.30
2023-04-19T07:21:59.948Z,6.78
2023-04-19T07:24:01.470Z,6.20
2023-04-19T07:26:02.918Z,8.10
2023-04-19T07:28:04.368Z,8.50
2023-04-19T07:30:06.600Z,8.50
2023-04-19T07:32:08.119Z,5.60
2023-04-19T07:34:10.019Z,4.93
2023-04-19T07:36:11.609Z,4.22
2023-04-19T07:38:13.042Z,5.60
2023-04-19T07:40:14.603Z,8.80
2023-04-19T07:42:16.574Z,8.02
2023-04-19T07:44:18.388Z,8.57
2023-04-19T07:46:20.150Z,8.20
2023-04-19T07:48:21.756Z,5.35
2023-04-19T07:50:24.708Z,4.43
2023-04-19T07:52:26.556Z,3.40
2023-04-19T07:54:28.096Z,5.70
2023-04-19T07:56:29.614Z,5.65
2023-04-19T07:58:31.078Z,4.63
2023-04-19T08:00:34.912Z,9.63
2023-04-19T08:02:36.551Z,7.45
2023-04-19T08:04:38.559Z,6.63
2023-04-19T08:06:40.332Z,8.90
2023-04-19T08:08:41.729Z,7.15
2023-04-19T08:10:43.567Z,6.82
2023-04-19T08:12:57.437Z,5.65
2023-04-19T08:15:19.709Z,5.93
2023-04-19T08:17:34.831Z,5.70
2023-04-19T08:19:41.741Z,4.30
2023-04-19T08:21:43.247Z,6.95
2023-04-19T08:23:48.266Z,21.83
2023-04-19T08:25:51.799Z,16.42
2023-04-19T08:27:53.276Z,25.67
2023-04-19T08:29:54.726Z,18.85
2023-04-19T08:31:56.247Z,26.40
2023-04-19T08:34:00.257Z,29.17
2023-04-19T08:36:01.849Z,31.10
2023-04-19T08:38:04.913Z,27.38
2023-04-19T08:40:06.811Z,31.23
2023-04-19T08:42:18.427Z,24.67
2023-04-19T08:44:36.487Z,27.13
2023-04-19T08:46:39.002Z,26.58
2023-04-19T08:48:40.983Z,28.80
2023-04-19T08:50:55.891Z,21.38
2023-04-19T08:55:08.216Z,23.48
2023-04-19T08:57:09.718Z,28.00
2023-04-19T08:59:17.961Z,31.27
2023-04-19T09:01:34.890Z,27.90
2023-04-19T09:03:55.995Z,41.13
2023-04-19T09:06:02.701Z,26.63
2023-04-19T09:08:24.992Z,27.10
2023-04-19T09:10:27.196Z,19.67
2023-04-19T09:12:28.713Z,24.33
2023-04-19T09:14:30.188Z,29.08
2023-04-19T09:16:31.632Z,17.25
2023-04-19T09:18:35.965Z,13.88
2023-04-19T09:20:42.766Z,27.90
2023-04-19T09:23:02.581Z,9.18
2023-04-19T09:27:32.428Z,23.20
2023-04-19T09:29:33.973Z,29.63
2023-04-19T09:31:50.530Z,25.80
2023-04-19T09:33:54.474Z,20.73
2023-04-19T09:35:56.106Z,29.23
2023-04-19T09:38:05.855Z,22.98
2023-04-19T09:40:23.967Z,21.55
2023-04-19T09:47:03.075Z,22.83
2023-04-19T09:49:20.320Z,16.50
2023-04-19T09:51:39.972Z,21.95
2023-04-19T09:53:42.506Z,10.52
2023-04-19T09:55:53.441Z,18.23
2023-04-19T09:58:01.502Z,30.95
2023-04-19T10:00:07.145Z,11.27
2023-04-19T10:02:10.890Z,28.80
2023-04-19T10:04:24.077Z,15.25
2023-04-19T10:06:45.897Z,12.75
2023-04-19T10:08:54.215Z,13.57
2023-04-19T10:10:56.287Z,15.43
2023-04-19T10:13:18.305Z,30.10
2023-04-19T10:15:21.967Z,16.08
2023-04-19T10:17:23.958Z,24.67
2023-04-19T10:19:25.687Z,13.13
2023-04-19T10:21:28.048Z,10.73
2023-04-19T10:23:30.278Z,23.95
2023-04-19T10:25:31.715Z,24.77
2023-04-19T10:27:34.730Z,14.10
2023-04-19T10:29:55.392Z,27.73
2023-04-19T10:31:56.832Z,22.08
2023-04-19T10:33:58.851Z,22.25
2023-04-19T10:36:00.880Z,26.00
2023-04-19T10:38:02.246Z,17.00
2023-04-19T10:40:05.367Z,13.25
2023-04-19T10:42:07.184Z,25.20
2023-04-19T10:44:09.638Z,27.85
2023-04-19T10:46:11.483Z,15.60
2023-04-19T10:48:33.460Z,14.85
2023-04-19T10:50:53.955Z,19.38
2023-04-19T10:52:55.750Z,31.60
2023-04-19T10:54:57.248Z,13.75
2023-04-19T10:57:00.690Z,22.70
2023-04-19T10:59:02.411Z,29.50
2023-04-19T11:01:22.761Z,15.18
2023-04-19T11:03:43.069Z,23.95
2023-04-19T11:06:03.637Z,21.85
2023-04-19T11:08:05.360Z,31.88
2023-04-19T11:10:07.310Z,33.25
2023-04-19T11:12:11.065Z,36.17
2023-04-19T11:14:13.586Z,23.88
2023-04-19T11:16:15.424Z,41.00
2023-04-19T11:18:20.471Z,14.43
2023-04-19T11:20:23.454Z,23.92
2023-04-19T11:22:41.534Z,23.10
2023-04-19T11:24:47.687Z,29.38
2023-04-19T11:26:49.151Z,24.58
2023-04-19T11:28:50.901Z,31.40
2023-04-19T11:30:52.505Z,25.70
2023-04-19T11:32:55.007Z,14.55
2023-04-19T11:34:56.397Z,13.98
2023-04-19T11:36:58.588Z,22.13
2023-04-19T11:39:00.076Z,14.07
2023-04-19T11:41:02.026Z,20.80
2023-04-19T11:43:05.200Z,16.23
2023-04-19T11:45:13.138Z,33.72
2023-04-19T11:47:20.646Z,20.30
2023-04-19T11:49:31.758Z,19.52
2023-04-19T11:51:33.186Z,25.15
2023-04-19T11:53:34.640Z,26.75
2023-04-19T11:55:36.486Z,15.68
2023-04-19T11:57:41.722Z,20.25
2023-04-19T12:00:02.116Z,23.45
2023-04-19T12:02:07.423Z,17.48
2023-04-19T12:04:09.619Z,21.70
2023-04-19T12:06:13.350Z,23.52
2023-04-19T12:08:14.805Z,28.08
2023-04-19T12:10:16.216Z,24.33
2023-04-19T12:12:31.709Z,19.98
2023-04-19T12:14:33.344Z,34.50
2023-04-19T12:16:34.856Z,31.15
2023-04-19T12:18:49.960Z,29.15
2023-04-19T12:20:52.246Z,25.65
2023-04-19T12:22:53.665Z,20.17
2023-04-19T12:24:56.149Z,25.10
2023-04-19T12:26:58.980Z,22.13
2023-04-19T12:29:02.792Z,25.88
2023-04-19T12:31:04.304Z,23.90
2023-04-19T12:33:09.230Z,21.38
2023-04-19T12:35:10.965Z,26.10
2023-04-19T12:37:12.514Z,26.92
2023-04-19T12:39:13.997Z,21.10
2023-04-19T12:41:15.579Z,27.30
2023-04-19T12:43:17.017Z,22.08
2023-04-19T12:45:19.224Z,23.50
2023-04-19T12:47:20.748Z,18.92
2023-04-19T12:49:22.183Z,28.25
2023-04-19T12:51:23.570Z,16.48
2023-04-19T12:53:25.299Z,29.42
2023-04-19T12:55:27.357Z,37.08
2023-04-19T12:57:28.817Z,22.50
2023-04-19T12:59:30.846Z,19.88
2023-04-19T13:01:32.934Z,20.63
2023-04-19T13:03:36.689Z,11.80
2023-04-19T13:05:38.570Z,17.20
2023-04-19T13:07:40.449Z,21.45
2023-04-19T13:09:41.908Z,26.55
2023-04-19T13:11:43.290Z,16.35
2023-04-19T13:13:44.761Z,17.50
2023-04-19T13:15:46.243Z,18.67
2023-04-19T13:17:48.051Z,20.80
2023-04-19T13:19:49.562Z,24.35
2023-04-19T13:21:51.154Z,21.92
2023-04-19T13:23:53.258Z,16.20
2023-04-19T13:25:54.809Z,24.55
2023-04-19T13:27:56.607Z,20.40
2023-04-19T13:29:58.021Z,28.58
2023-04-19T13:31:59.503Z,21.33
2023-04-19T13:34:01.448Z,19.20
2023-04-19T13:36:03.166Z,30.63
2023-04-19T13:38:04.757Z,15.93
2023-04-19T13:40:18.155Z,18.65
2023-04-19T13:42:20.453Z,21.58
2023-04-19T13:44:21.900Z,24.27
2023-04-19T13:46:23.318Z,19.20
2023-04-19T13:48:27.463Z,14.02
2023-04-19T13:50:29.305Z,23.75
2023-04-19T13:52:30.706Z,17.67
2023-04-19T13:54:32.154Z,17.83
2023-04-19T13:56:33.544Z,17.05
2023-04-19T13:58:36.108Z,17.27
2023-04-19T14:00:38.051Z,18.30
2023-04-19T14:02:39.811Z,15.00
2023-04-19T14:04:41.409Z,17.38
2023-04-19T14:06:43.029Z,19.27
2023-04-19T14:08:44.615Z,24.00
2023-04-19T14:10:46.435Z,23.52
2023-04-19T14:12:49.101Z,14.50
2023-04-19T14:14:50.533Z,15.52
2023-04-19T14:16:51.968Z,14.38
2023-04-19T14:18:53.452Z,15.77
2023-04-19T14:20:55.597Z,23.10
2023-04-19T14:22:59.048Z,18.70
2023-04-19T14:25:00.670Z,15.15
2023-04-19T14:29:06.608Z,13.18
2023-04-19T14:31:10.637Z,15.65
2023-04-19T14:33:12.080Z,12.25
2023-04-19T14:35:13.519Z,13.98
2023-04-19T14:37:15.011Z,15.38
2023-04-19T14:39:16.730Z,21.60
2023-04-19T14:41:18.690Z,10.85
2023-04-19T14:43:20.129Z,15.30
2023-04-19T14:45:21.641Z,14.43
2023-04-19T14:47:23.072Z,15.48
2023-04-19T14:49:24.512Z,14.93
2023-04-19T14:51:26.221Z,15.65
2023-04-19T14:53:27.615Z,14.82
2023-04-19T14:55:29.100Z,15.57
2023-04-19T14:57:30.499Z,15.32
2023-04-19T14:59:31.958Z,16.10
2023-04-19T15:01:34.137Z,14.23
2023-04-19T15:03:35.831Z,16.50
2023-04-19T15:05:37.418Z,17.42
2023-04-19T15:07:38.827Z,13.20
2023-04-19T15:09:41.159Z,15.40
2023-04-19T15:11:43.153Z,12.82
2023-04-19T15:13:44.648Z,14.57
2023-04-19T15:15:46.139Z,12.88
2023-04-19T15:17:47.749Z,14.23
2023-04-19T15:19:49.219Z,13.77
2023-04-19T15:21:50.852Z,14.77
2023-04-19T15:23:52.360Z,16.02
2023-04-19T15:25:53.823Z,16.60
2023-04-19T15:27:55.722Z,13.48
2023-04-19T15:29:57.129Z,14.57
2023-04-19T15:31:58.893Z,14.98
2023-04-19T15:34:01.466Z,15.85
2023-04-19T15:36:02.965Z,14.45
2023-04-19T15:38:04.415Z,14.77
2023-04-19T15:40:09.708Z,14.15
2023-04-19T15:42:11.110Z,14.02
2023-04-19T15:44:12.934Z,11.50
2023-04-19T15:46:14.726Z,14.60
2023-04-19T15:48:16.154Z,18.02
2023-04-19T15:50:17.534Z,13.07
2023-04-19T15:52:19.373Z,15.35
2023-04-19T15:54:23.050Z,16.45
2023-04-19T15:56:24.602Z,13.27
2023-04-19T15:58:26.774Z,15.55
2023-04-19T16:00:28.351Z,15.00
2023-04-19T16:02:29.974Z,12.98
2023-04-19T16:04:32.209Z,19.08
2023-04-19T16:06:33.740Z,16.58
2023-04-19T16:08:35.276Z,18.80
2023-04-19T16:10:36.931Z,48.83
2023-04-19T16:12:38.351Z,57.65
2023-04-19T16:14:40.080Z,48.97
2023-04-19T16:16:42.271Z,24.95
2023-04-19T16:18:43.772Z,24.50
2023-04-19T16:20:45.274Z,22.70
2023-04-19T16:22:47.049Z,21.23
2023-04-19T16:24:48.672Z,20.27
2023-04-19T16:26:50.139Z,16.38
2023-04-19T16:28:51.613Z,23.52
2023-04-19T16:30:53.147Z,15.48
2023-04-19T16:32:55.151Z,21.10
2023-04-19T16:34:56.896Z,24.33
2023-04-19T16:36:58.350Z,42.33
2023-04-19T16:39:00.369Z,19.35
2023-04-19T16:41:04.563Z,21.98
2023-04-19T16:43:06.545Z,33.67
2023-04-19T16:45:08.878Z,22.75
2023-04-19T16:47:11.105Z,27.25
2023-04-19T16:49:12.593Z,28.90
2023-04-19T16:51:14.018Z,22.60
2023-04-19T16:53:15.660Z,22.83
2023-04-19T16:55:17.247Z,20.05
2023-04-19T16:57:18.884Z,16.17
2023-04-19T16:59:20.739Z,22.73
2023-04-19T17:01:22.547Z,20.20
2023-04-19T17:03:24.263Z,20.15
2023-04-19T17:05:25.886Z,29.25
2023-04-19T17:07:27.358Z,21.35
2023-04-19T17:09:29.085Z,27.65
2023-04-19T17:11:32.523Z,29.85
2023-04-19T17:13:34.019Z,26.08
2023-04-19T17:15:37.150Z,22.92
2023-04-19T17:17:38.798Z,22.17
2023-04-19T17:19:40.237Z,17.27
2023-04-19T17:21:41.685Z,24.30
2023-04-19T17:23:44.814Z,26.42
2023-04-19T17:25:46.221Z,29.10
2023-04-19T17:27:47.601Z,25.77
2023-04-19T17:29:49.002Z,24.30
2023-04-19T17:31:50.466Z,29.85
2023-04-19T17:33:51.923Z,31.33
2023-04-19T17:35:53.310Z,26.35
2023-04-19T17:37:54.827Z,27.33
2023-04-19T17:39:56.244Z,24.45
2023-04-19T17:41:57.922Z,23.92
2023-04-19T17:43:59.366Z,23.65
2023-04-19T17:46:00.907Z,25.85
2023-04-19T17:48:02.464Z,24.33
2023-04-19T17:50:08.091Z,22.98
2023-04-19T17:52:09.542Z,23.17
2023-04-19T17:54:10.962Z,21.73
2023-04-19T17:56:12.418Z,20.05
2023-04-19T17:58:13.938Z,23.02
2023-04-19T18:00:16.381Z,25.08
2023-04-19T18:02:17.894Z,25.02
2023-04-19T18:04:20.056Z,20.40
2023-04-19T18:06:21.832Z,27.15
2023-04-19T18:08:23.251Z,27.45
2023-04-19T18:10:24.688Z,24.80
2023-04-19T18:12:26.481Z,29.85
2023-04-19T18:14:27.938Z,27.45
2023-04-19T18:16:29.407Z,28.10
2023-04-19T18:18:30.963Z,27.05
2023-04-19T18:20:32.407Z,29.08
2023-04-19T18:22:33.841Z,26.88
2023-04-19T18:24:35.305Z,24.98
2023-04-19T18:26:44.428Z,23.17
2023-04-19T18:28:45.827Z,27.85
2023-04-19T18:30:47.395Z,25.02
2023-04-19T18:32:48.861Z,27.80
2023-04-19T18:34:50.300Z,27.02
2023-04-19T18:36:54.838Z,26.65
2023-04-19T18:38:56.333Z,25.85
2023-04-19T18:40:58.285Z,25.30
2023-04-19T18:42:59.785Z,25.42
2023-04-19T18:45:01.905Z,22.02
2023-04-19T18:47:03.317Z,24.77
2023-04-19T18:49:04.750Z,26.73
2023-04-19T18:51:09.662Z,27.52
2023-04-19T18:53:11.360Z,25.77
2023-04-19T18:55:13.801Z,26.30
2023-04-19T18:59:19.877Z,27.38
2023-04-19T19:01:21.417Z,26.20
2023-04-19T19:03:43.694Z,29.27
2023-04-19T19:05:45.138Z,28.83
2023-04-19T19:07:47.096Z,27.92
2023-04-19T19:09:55.842Z,26.27
2023-04-19T19:11:57.829Z,25.42
2023-04-19T19:13:59.222Z,27.20
2023-04-19T19:16:00.743Z,27.88
2023-04-19T19:18:03.129Z,26.45
2023-04-19T19:20:06.785Z,26.90
2023-04-19T19:22:22.430Z,24.83
2023-04-19T19:24:25.490Z,34.42
2023-04-19T19:26:26.929Z,34.35
2023-04-19T19:28:28.432Z,33.42
2023-04-19T19:30:33.583Z,41.55
2023-04-19T19:32:35.400Z,40.08
2023-04-19T19:34:51.147Z,28.65
2023-04-19T19:36:55.793Z,34.22
2023-04-19T19:38:57.189Z,29.13
2023-04-19T19:41:39.890Z,25.63
2023-04-19T19:43:19.980Z,29.52
2023-04-19T19:45:21.546Z,27.50
2023-04-19T19:47:23.955Z,32.50
2023-04-19T19:49:26.284Z,30.20
2023-04-19T19:51:53.021Z,33.63
2023-04-19T19:53:49.808Z,32.15
2023-04-19T19:55:51.469Z,32.97
2023-04-19T20:00:12.989Z,32.08
2023-04-19T20:02:19.396Z,32.42
2023-04-19T20:04:22.713Z,43.20
2023-04-19T20:08:29.218Z,33.30
2023-04-19T20:10:30.863Z,36.58
2023-04-19T20:12:32.289Z,33.92
2023-04-19T20:14:36.517Z,33.85
2023-04-19T20:16:38.090Z,36.70
2023-04-19T20:18:39.741Z,35.13
2023-04-19T20:20:41.190Z,40.17
2023-04-19T20:22:42.669Z,41.25
2023-04-19T20:24:45.728Z,43.83
2023-04-19T20:26:48.214Z,43.35
2023-04-19T20:28:49.774Z,39.00
2023-04-19T20:30:51.212Z,43.13
2023-04-19T20:32:52.828Z,43.20
2023-04-19T20:34:54.305Z,44.60
2023-04-19T20:36:55.731Z,40.83
2023-04-19T20:38:58.825Z,39.85
2023-04-19T20:41:00.262Z,39.63
2023-04-19T20:43:01.718Z,38.78
2023-04-19T20:45:03.220Z,42.45
2023-04-19T20:47:04.696Z,39.50
2023-04-19T20:49:06.188Z,39.58
2023-04-19T20:51:07.652Z,39.15
2023-04-19T20:53:09.018Z,39.53
2023-04-19T20:55:10.508Z,38.67
2023-04-19T20:57:12.006Z,40.35
2023-04-19T20:59:13.453Z,40.75
2023-04-19T21:01:17.541Z,40.83
2023-04-19T21:03:19.204Z,41.00
2023-04-19T21:05:20.826Z,41.88
2023-04-19T21:07:22.249Z,38.95
2023-04-19T21:09:23.707Z,38.42
2023-04-19T21:11:25.284Z,41.35
2023-04-19T21:13:26.686Z,40.90
2023-04-19T21:15:28.425Z,39.80
2023-04-19T21:17:29.906Z,40.05
2023-04-19T21:19:31.365Z,40.78
2023-04-19T21:21:32.790Z,40.33
2023-04-19T21:23:34.469Z,43.58
2023-04-19T21:25:36.004Z,45.72
2023-04-19T21:27:37.416Z,45.42
2023-04-19T21:29:38.817Z,44.40
2023-04-19T21:31:40.650Z,44.20
2023-04-19T21:33:42.142Z,42.78
2023-04-19T21:35:43.723Z,42.63
2023-04-19T21:37:45.534Z,53.22
2023-04-19T21:39:48.490Z,39.47
2023-04-19T21:41:49.974Z,42.72
2023-04-19T21:43:51.389Z,40.90
2023-04-19T21:45:52.786Z,50.63
2023-04-19T21:47:54.205Z,54.90
2023-04-19T21:49:55.767Z,41.38
2023-04-19T21:51:57.239Z,42.42
2023-04-19T21:54:01.106Z,42.53
2023-04-19T21:56:03.037Z,42.45
2023-04-19T21:58:04.438Z,41.85
2023-04-19T22:00:06.895Z,56.67
2023-04-19T22:02:08.431Z,70.32
2023-04-19T22:04:12.133Z,84.38
2023-04-19T22:06:17.040Z,43.60
2023-04-19T22:08:18.514Z,39.40
2023-04-19T22:10:19.927Z,44.42
2023-04-19T22:12:21.368Z,43.35
2023-04-19T22:14:25.606Z,44.95
2023-04-19T22:16:28.236Z,47.30
2023-04-19T22:18:29.726Z,48.58
2023-04-19T22:20:32.271Z,48.63
2023-04-19T22:22:33.710Z,47.78
2023-04-19T22:24:41.238Z,48.25
2023-04-19T22:26:50.076Z,45.90
2023-04-19T22:28:51.534Z,46.13
2023-04-19T22:30:52.995Z,46.08
2023-04-19T22:32:54.506Z,45.72
2023-04-19T22:34:55.905Z,44.42
2023-04-19T22:36:57.322Z,58.15
2023-04-19T22:38:58.785Z,66.78
2023-04-19T22:41:00.971Z,51.22
2023-04-19T22:43:02.372Z,48.17
2023-04-19T22:45:04.057Z,48.70
2023-04-19T22:47:05.494Z,47.13
2023-04-19T22:49:08.932Z,49.65
2023-04-19T22:51:10.539Z,49.55
2023-04-19T22:53:12.878Z,49.22
2023-04-19T22:55:14.274Z,49.00
2023-04-19T22:57:16.513Z,42.03
2023-04-19T22:59:18.158Z,48.28
2023-04-19T23:01:19.812Z,47.05
2023-04-19T23:03:21.611Z,56.20
2023-04-19T23:05:23.244Z,51.92
2023-04-19T23:07:24.645Z,50.83
2023-04-19T23:09:26.057Z,48.03
2023-04-19T23:11:29.914Z,47.80
2023-04-19T23:13:31.353Z,45.95
2023-04-19T23:15:33.263Z,46.60
2023-04-19T23:17:34.800Z,46.33
2023-04-19T23:19:37.587Z,44.20
2023-04-19T23:21:39.010Z,45.88
2023-04-19T23:23:40.538Z,44.75
2023-04-19T23:25:42.155Z,57.42
2023-04-19T23:27:43.620Z,56.30
2023-04-19T23:29:45.097Z,80.22
2023-04-19T23:31:46.796Z,142.27
2023-04-19T23:33:48.515Z,67.05
2023-04-19T23:35:49.924Z,108.85
2023-04-19T23:37:51.455Z,99.38
2023-04-19T23:39:52.896Z,65.32
2023-04-19T23:41:54.306Z,58.15
2023-04-19T23:43:55.805Z,59.53
2023-04-19T23:45:57.209Z,54.13
2023-04-19T23:47:58.650Z,54.00
2023-04-19T23:50:00.442Z,51.55
2023-04-19T23:52:04.970Z,47.65
2023-04-19T23:54:06.681Z,52.65
2023-04-19T23:56:08.113Z,54.67
2023-04-19T23:58:09.490Z,60.15
